createdAt,value
2022-12-01T02:18:40.133Z,15.70
2022-12-01T02:21:22.025Z,14.80
2022-12-01T02:24:22.628Z,16.00
2022-12-01T02:26:52.779Z,14.80
2022-12-01T02:29:41.913Z,14.60
2022-12-01T02:32:14.594Z,13.40
2022-12-01T02:35:06.421Z,13.80
2022-12-01T02:37:41.880Z,15.50
2022-12-01T02:40:20.907Z,16.20
2022-12-01T02:42:59.989Z,13.20
2022-12-01T02:45:41.199Z,13.20
2022-12-01T02:48:12.079Z,11.00
2022-12-01T02:50:39.905Z,11.30
2022-12-01T02:53:08.389Z,18.10
2022-12-01T02:55:36.862Z,13.50
2022-12-01T02:58:13.333Z,9.40
2022-12-01T03:00:40.181Z,12.30
2022-12-01T03:03:32.421Z,19.10
2022-12-01T03:06:08.639Z,18.30
2022-12-01T03:08:59.492Z,20.90
2022-12-01T03:11:34.461Z,20.30
2022-12-01T03:14:20.227Z,19.70
2022-12-01T03:16:51.865Z,16.90
2022-12-01T03:19:34.458Z,21.50
2022-12-01T03:22:25.886Z,18.00
2022-12-01T03:24:53.897Z,19.70
2022-12-01T03:27:22.899Z,16.50
2022-12-01T03:32:22.285Z,13.20
2022-12-01T03:35:05.284Z,14.40
2022-12-01T03:37:43.706Z,15.80
2022-12-01T03:40:12.757Z,12.00
2022-12-01T03:42:53.569Z,14.00
2022-12-01T03:45:27.520Z,13.20
2022-12-01T03:47:54.426Z,12.10
2022-12-01T03:50:21.338Z,13.70
2022-12-01T03:53:10.454Z,13.90
2022-12-01T03:55:40.988Z,10.80
2022-12-01T03:58:10.965Z,15.10
2022-12-01T04:00:38.197Z,13.40
2022-12-01T04:03:06.104Z,13.50
2022-12-01T04:05:33.957Z,13.60
2022-12-01T04:08:01.399Z,14.60
2022-12-01T04:10:28.451Z,19.70
2022-12-01T04:12:59.365Z,15.60
2022-12-01T04:15:27.393Z,14.90
2022-12-01T04:17:54.390Z,20.00
2022-12-01T04:20:21.330Z,17.60
2022-12-01T04:22:48.671Z,14.40
2022-12-01T04:25:15.943Z,11.40
2022-12-01T04:27:43.394Z,20.40
2022-12-01T04:30:11.188Z,23.70
2022-12-01T04:32:43.785Z,20.00
2022-12-01T04:35:12.510Z,26.20
2022-12-01T04:37:41.106Z,25.80
2022-12-01T04:40:08.552Z,21.20
2022-12-01T04:42:36.003Z,24.50
2022-12-01T04:45:04.738Z,20.00
